Hauptseite
METAR-TAF:

METAR-TAF

Flughäfen :

Flugplatz Vöslau-Kottingbrunn

Bad Vöslau, Österreich

Breite: 47-57-52N, Länge: 016-15-34E, Höhe: 233 m

Beobachtung

Neuester Wetterbericht von vor 6 Stunden und 17 Minuten, um 16:00 UTC
Wind 2 kt aus unterschiedlichen Richtungen
Temperatur 11°C
Luftfeuchtigkeit 35%
Luftdruck

METAR: LOAV 161600Z VRB02KT 40KM BKN300CI 11/M04

Zeit: 23:17 (22:17 UTC)

Prognose

Neuester Wetterbericht von vor 10 Stunden und 52 Minuten, um 11:25 UTC
Gültige Prognose vom 16 um 12 UTC bis 16 um 21 UTC
Wind 2 kt aus unterschiedlichen Richtungen
Sichtweite 10 km oder mehr
Aufgelockert bewölkt in der Höhe von 30000 ft

TAF: LOAV 161125Z 1612/1621 VRB02KT 9999 SCT300

Wetterbeobachtungen und Prognosen von mehr als 4000 Flughäfen (METAR und TAF Bericht).

Die verfügbaren Stationen werden durch gelbe und rote Markierungen auf der Karte dargestellt.

Führen Sie die Maus auf sie, um den Namen der Station zu sehen.

Darauf klicken, um die Beobachtung von Wetterbeobachtungen und Prognosen zu sehen.

Um die Karte zu ändern : klicken Sie auf den grünen Tasten mit einem schwarzen Kreuz Zum Vergrößern, auf den grünen Button mit einem Gedankenstrich zu verkleinern, oder auf die grünen Pfeile für benachbarte Karten.


METAR-TAF: